Time;durP1;ratioP1;P1;durP2;ratioP2;P2;SDS_P1;SDS_P2;PMS_P1;PMS_P2;Temp;Humidity;BMP_temperature;BMP_pressure;BME280_temperature;BME280_humidity;BME280_pressure;Samples;Min_cycle;Max_cycle;Signal;HPM_P1;HPM_P2
2022/09/13 00:00:40;;;;;;;;;;;;;;;-144.47;100.00;61586.06;4987115;28;19917;-79
2022/09/13 00:03:06;;;;;;;;;;;;;;;-144.47;100.00;61586.06;5003994;28;19917;-80
2022/09/13 00:05:32;;;;;;;;;;;;;;;-144.47;100.00;61586.06;5005279;28;19917;-79
2022/09/13 00:07:57;;;;;;;;;;;;;;;-144.47;100.00;61586.06;5003453;28;20366;-79
2022/09/13 00:10:23;;;;;;;;;;;;;;;-144.47;100.00;61586.06;5006453;28;20366;-79
2022/09/13 00:12:49;;;;;;;;;;;;;;;-144.47;100.00;61586.06;4989293;28;19918;-78
2022/09/13 00:15:15;;;;;;;3.13;2.42;;;;;;;-144.47;100.00;61586.06;5002742;28;19922;-79
2022/09/13 00:17:41;;;;;;;2.90;2.63;;;;;;;-144.47;100.00;61586.06;5004324;28;20402;-80
2022/09/13 00:20:07;;;;;;;2.80;2.60;;;;;;;-144.47;100.00;61586.06;5004653;28;20026;-80
2022/09/13 00:22:33;;;;;;;4.00;3.05;;;;;;;-144.47;100.00;61586.06;5002927;28;20034;-80
2022/09/13 00:24:58;;;;;;;4.32;3.35;;;;;;;-144.47;100.00;61586.06;5004536;28;20372;-79
2022/09/13 00:27:24;;;;;;;3.53;2.47;;;;;;;-144.47;100.00;61586.06;5000802;28;20117;-79
2022/09/13 00:29:50;;;;;;;2.80;2.60;;;;;;;-144.47;100.00;61586.06;5019116;28;20380;-80
2022/09/13 00:32:16;;;;;;;9.35;3.75;;;;;;;-144.47;100.00;61586.06;5001633;28;20042;-80
2022/09/13 00:34:41;;;;;;;3.05;2.80;;;;;;;-144.47;100.00;61586.06;5002001;28;20031;-78
2022/09/13 00:37:07;;;;;;;5.18;2.47;;;;;;;-144.47;100.00;61586.06;4984846;28;20514;-78
2022/09/13 00:39:33;;;;;;;2.92;2.70;;;;;;;-144.47;100.00;61586.06;5001316;28;20026;-79
2022/09/13 00:41:59;;;;;;;5.10;2.63;;;;;;;-144.47;100.00;61586.06;5004319;28;20443;-79
2022/09/13 00:44:45;;;;;;;3.67;2.97;;;;;;;-144.47;100.00;61586.06;5003247;28;20068;-82
2022/09/13 00:47:14;;;;;;;4.40;2.78;;;;;;;-144.47;100.00;61586.06;5002450;28;20031;-80
2022/09/13 00:49:42;;;;;;;3.50;2.78;;;;;;;-144.47;100.00;61586.06;5001629;28;20033;-82
2022/09/13 00:52:12;;;;;;;4.45;2.70;;;;;;;-144.47;100.00;61586.06;5005395;28;20034;-82
2022/09/13 00:54:44;;;;;;;4.43;2.42;;;;;;;-144.47;100.00;61586.06;5006051;28;20037;-82
2022/09/13 00:57:14;;;;;;;4.65;2.45;;;;;;;-144.47;100.00;61586.06;5007974;28;20080;-80
2022/09/13 00:59:46;;;;;;;2.90;2.60;;;;;;;-144.47;100.00;61586.06;4999931;28;20091;-80
2022/09/13 01:02:13;;;;;;;3.33;2.97;;;;;;;-144.47;100.00;61586.06;5004898;28;20042;-79
2022/09/13 01:04:39;;;;;;;4.15;2.60;;;;;;;-144.47;100.00;61586.06;5015801;28;20030;-81
2022/09/13 01:07:08;;;;;;;4.20;2.65;;;;;;;-144.47;100.00;61586.06;5003725;28;20073;-81
2022/09/13 01:09:43;;;;;;;4.25;2.83;;;;;;;-144.47;100.00;61586.06;5004501;28;20038;-81
2022/09/13 01:12:34;;;;;;;4.07;2.80;;;;;;;-144.47;100.00;61586.06;5007110;28;20073;-81
2022/09/13 01:15:03;;;;;;;7.03;3.13;;;;;;;-144.47;100.00;61586.06;5001030;28;20153;-79
2022/09/13 01:17:31;;;;;;;8.52;3.35;;;;;;;-144.47;100.00;61586.06;5003337;28;20079;-79
2022/09/13 01:19:59;;;;;;;4.60;3.80;;;;;;;-144.47;100.00;61586.06;5000195;28;20030;-77
2022/09/13 01:22:44;;;;;;;3.75;3.38;;;;;;;-144.47;100.00;61586.06;5003844;28;20045;-77
2022/09/13 01:25:13;;;;;;;3.40;3.10;;;;;;;-144.47;100.00;61586.06;4965639;28;1083346;-79
2022/09/13 01:28:10;;;;;;;3.78;3.42;;;;;;;-144.47;100.00;61586.06;5002867;28;20296;-79
2022/09/13 01:30:50;;;;;;;3.97;3.30;;;;;;;-144.47;100.00;61586.06;5006639;28;20442;-80
2022/09/13 01:33:34;;;;;;;;;;;;;;;-144.47;100.00;61586.06;5003375;28;20735;-79
2022/09/13 01:36:31;;;;;;;3.42;3.13;;;;;;;-144.47;100.00;61586.06;5005947;28;19921;-80
2022/09/13 01:39:05;;;;;;;4.13;3.25;;;;;;;-144.47;100.00;61586.06;5001900;28;20053;-80
2022/09/13 01:41:44;;;;;;;4.72;3.30;;;;;;;-144.47;100.00;61586.06;5005504;28;20030;-81
2022/09/13 01:44:45;;;;;;;3.72;2.80;;;;;;;-144.47;100.00;61586.06;5003325;28;20095;-80
2022/09/13 01:47:21;;;;;;;;;;;;;;;-144.47;100.00;61586.06;5006179;28;20053;-81
2022/09/13 01:49:53;;;;;;;;;;;;;;;-144.47;100.00;61586.06;5004122;28;19925;-78
2022/09/13 01:52:37;;;;;;;3.35;3.05;;;;;;;-144.47;100.00;61586.06;5001068;28;20267;-81
2022/09/13 01:55:26;;;;;;;3.13;2.92;;;;;;;-144.47;100.00;61586.06;5006064;28;20038;-82
2022/09/13 01:58:06;;;;;;;3.13;2.83;;;;;;;-144.47;100.00;61586.06;5001465;28;20045;-78
2022/09/13 02:00:40;;;;;;;3.80;3.10;;;;;;;-144.47;100.00;61586.06;5005133;28;20037;-80
2022/09/13 02:03:24;;;;;;;3.70;3.40;;;;;;;-144.47;100.00;61586.06;4984577;28;20042;-81
2022/09/13 02:05:56;;;;;;;3.95;3.65;;;;;;;-144.47;100.00;61586.06;5005073;28;20084;-79
2022/09/13 02:08:39;;;;;;;6.07;3.58;;;;;;;-144.47;100.00;61586.06;4997882;28;20402;-81
2022/09/13 02:11:07;;;;;;;3.85;3.55;;;;;;;-144.47;100.00;61586.06;5000871;28;20042;-82
2022/09/13 02:13:41;;;;;;;3.75;3.35;;;;;;;-144.47;100.00;61586.06;4984346;28;20034;-80
2022/09/13 02:16:26;;;;;;;3.20;3.00;;;;;;;-144.47;100.00;61586.06;5001093;28;20035;-80
2022/09/13 02:18:58;;;;;;;7.68;3.63;;;;;;;-144.47;100.00;61586.06;4999879;28;20034;-79
2022/09/13 02:21:28;;;;;;;5.10;3.35;;;;;;;-144.47;100.00;61586.06;5007214;28;20393;-78
2022/09/13 02:24:10;;;;;;;5.97;3.40;;;;;;;-144.47;100.00;61586.06;5006853;28;20121;-79
2022/09/13 02:26:39;;;;;;;5.15;3.22;;;;;;;-144.47;100.00;61586.06;5005659;28;20506;-79
2022/09/13 02:29:10;;;;;;;3.85;3.42;;;;;;;-144.47;100.00;61586.06;5000547;28;20165;-81
2022/09/13 02:31:47;;;;;;;3.78;3.10;;;;;;;-144.47;100.00;61586.06;5001220;28;20034;-81
2022/09/13 02:34:28;;;;;;;5.75;3.05;;;;;;;-144.47;100.00;61586.06;5001463;28;20038;-81
2022/09/13 02:36:55;;;;;;;4.80;3.20;;;;;;;-144.47;100.00;61586.06;5007715;28;20034;-81
2022/09/13 02:39:24;;;;;;;4.10;3.33;;;;;;;-144.47;100.00;61586.06;5002758;28;20032;-80
2022/09/13 02:41:55;;;;;;;8.25;3.20;;;;;;;-144.47;100.00;61586.06;4999356;28;20030;-80
2022/09/13 02:44:30;;;;;;;3.20;2.90;;;;;;;-144.47;100.00;61586.06;5002653;28;20084;-80
2022/09/13 02:47:21;;;;;;;3.88;3.20;;;;;;;-144.47;100.00;61586.06;5005926;28;20069;-80
2022/09/13 02:50:01;;;;;;;4.65;3.17;;;;;;;-144.47;100.00;61586.06;5003689;28;20038;-82
2022/09/13 02:52:45;;;;;;;3.50;3.20;;;;;;;-144.47;100.00;61586.06;5006437;28;20033;-81
2022/09/13 02:55:35;;;;;;;4.07;3.70;;;;;;;-144.47;100.00;61586.06;5001286;28;20423;-81
2022/09/13 02:58:12;;;;;;;5.20;4.13;;;;;;;-144.47;100.00;61586.06;5006112;28;20042;-78
2022/09/13 03:00:39;;;;;;;6.18;4.85;;;;;;;-144.47;100.00;61586.06;5000556;28;20030;-80
2022/09/13 03:03:08;;;;;;;10.45;5.28;;;;;;;-144.47;100.00;61586.06;5001490;28;20045;-80
2022/09/13 03:05:35;;;;;;;4.18;3.78;;;;;;;-144.47;100.00;61586.06;5001554;28;20602;-80
2022/09/13 03:08:01;;;;;;;4.82;3.78;;;;;;;-144.47;100.00;61586.06;4988832;28;20558;-82
2022/09/13 03:10:39;;;;;;;3.72;3.42;;;;;;;-144.47;100.00;61586.06;5004429;28;20494;-81
2022/09/13 03:13:17;;;;;;;4.60;3.30;;;;;;;-144.47;100.00;61586.06;5009564;28;20112;-80
2022/09/13 03:15:46;;;;;;;3.58;3.17;;;;;;;-144.47;100.00;61586.06;5005074;28;20027;-80
2022/09/13 03:18:50;;;;;;;7.47;3.60;;;;;;;-144.47;100.00;61586.06;5008831;28;20042;-79
2022/09/13 03:21:48;;;;;;;3.75;3.20;;;;;;;-144.47;100.00;61586.06;4999223;28;20132;-80
2022/09/13 03:24:27;;;;;;;5.45;3.50;;;;;;;-144.47;100.00;61586.06;5002892;28;20042;-79
2022/09/13 03:27:30;;;;;;;4.55;3.15;;;;;;;-144.47;100.00;61586.06;5010337;28;20030;-79
2022/09/13 03:30:07;;;;;;;4.90;3.80;;;;;;;-144.47;100.00;61586.06;5010569;28;20045;-79
2022/09/13 03:32:45;;;;;;;6.38;2.97;;;;;;;-144.47;100.00;61586.06;5003566;28;20386;-79
2022/09/13 03:35:24;;;;;;;3.03;2.83;;;;;;;-144.47;100.00;61586.06;5005084;28;20556;-78
2022/09/13 03:37:55;;;;;;;3.97;2.92;;;;;;;-144.47;100.00;61586.06;5006166;28;20033;-80
2022/09/13 03:41:03;;;;;;;4.43;3.10;;;;;;;-144.47;100.00;61586.06;5004123;28;20061;-78
2022/09/13 03:43:35;;;;;;;3.67;3.38;;;;;;;-144.47;100.00;61586.06;4965641;28;20035;-80
2022/09/13 03:46:27;;;;;;;3.80;3.47;;;;;;;-144.47;100.00;61586.06;4930514;29;20058;-80
2022/09/13 03:48:54;;;;;;;3.38;3.08;;;;;;;-144.47;100.00;61586.06;4969434;28;20058;-79
2022/09/13 03:51:20;;;;;;;6.10;3.75;;;;;;;-144.47;100.00;61586.06;4965361;28;20043;-78
2022/09/13 03:53:52;;;;;;;5.15;4.00;;;;;;;-144.47;100.00;61586.06;4960834;28;20106;-78
2022/09/13 03:56:19;;;;;;;3.90;3.17;;;;;;;-144.47;100.00;61586.06;4961804;28;20130;-78
2022/09/13 03:58:48;;;;;;;5.63;4.20;;;;;;;-144.47;100.00;61586.06;4960762;28;20043;-80
2022/09/13 04:01:19;;;;;;;8.20;3.53;;;;;;;-144.47;100.00;61586.06;4969618;28;20074;-78
2022/09/13 04:03:44;;;;;;;3.85;3.35;;;;;;;-144.47;100.00;61586.06;4966494;28;20043;-79
2022/09/13 04:06:09;;;;;;;4.40;4.10;;;;;;;-144.47;100.00;61586.06;4962612;28;20114;-79
2022/09/13 04:08:35;;;;;;;5.80;3.97;;;;;;;-144.47;100.00;61586.06;4964816;28;20125;-79
2022/09/13 04:11:00;;;;;;;4.75;3.95;;;;;;;-144.47;100.00;61586.06;4967486;28;20054;-79
2022/09/13 04:13:26;;;;;;;3.85;3.55;;;;;;;-144.47;100.00;61586.06;4967193;28;20054;-79
2022/09/13 04:15:52;;;;;;;4.25;3.58;;;;;;;-144.47;100.00;61586.06;5012363;28;20406;-80
2022/09/13 04:18:18;;;;;;;4.18;3.60;;;;;;;-144.47;100.00;61586.06;5026158;28;20041;-77
2022/09/13 04:20:43;;;;;;;6.82;3.42;;;;;;;-144.47;100.00;61586.06;5017518;28;20042;-79
2022/09/13 04:23:09;;;;;;;9.32;3.17;;;;;;;-144.47;100.00;61586.06;5023479;28;20472;-80
2022/09/13 04:25:38;;;;;;;4.45;4.05;;;;;;;-144.47;100.00;61586.06;5023048;28;20041;-80
2022/09/13 04:28:03;;;;;;;4.20;3.88;;;;;;;-144.47;100.00;61586.06;5022545;28;20046;-78
2022/09/13 04:30:29;;;;;;;5.90;3.72;;;;;;;-144.47;100.00;61586.06;5024478;28;20030;-79
2022/09/13 04:32:55;;;;;;;5.65;3.95;;;;;;;-144.47;100.00;61586.06;5010845;28;20038;-79
2022/09/13 04:35:20;;;;;;;5.05;4.10;;;;;;;-144.47;100.00;61586.06;5010278;28;20109;-80
2022/09/13 04:37:46;;;;;;;5.60;3.85;;;;;;;-144.47;100.00;61586.06;5020154;28;20057;-79
2022/09/13 04:40:12;;;;;;;4.32;3.97;;;;;;;-144.47;100.00;61586.06;5018135;28;20119;-79
2022/09/13 04:42:38;;;;;;;4.75;4.35;;;;;;;-144.47;100.00;61586.06;5013667;28;20590;-79
2022/09/13 04:45:05;;;;;;;5.03;3.85;;;;;;;-144.47;100.00;61586.06;5014105;28;20078;-79
2022/09/13 04:47:30;;;;;;;5.72;3.70;;;;;;;-144.47;100.00;61586.06;5011829;28;20084;-79
2022/09/13 04:49:56;;;;;;;4.70;3.47;;;;;;;-144.47;100.00;61586.06;5021967;28;20034;-80
2022/09/13 04:52:21;;;;;;;4.43;4.03;;;;;;;-144.47;100.00;61586.06;5006150;28;20050;-78
2022/09/13 04:54:47;;;;;;;4.60;4.00;;;;;;;-144.47;100.00;61586.06;5005473;28;20023;-81
2022/09/13 04:57:13;;;;;;;4.45;4.00;;;;;;;-144.47;100.00;61586.06;5002402;28;20471;-78
2022/09/13 04:59:39;;;;;;;7.80;4.30;;;;;;;-144.47;100.00;61586.06;5004886;28;20068;-79
2022/09/13 05:02:05;;;;;;;8.18;4.60;;;;;;;-144.47;100.00;61586.06;5003883;28;20459;-81
2022/09/13 05:04:30;;;;;;;4.68;4.20;;;;;;;-144.47;100.00;61586.06;5005683;28;20395;-80
2022/09/13 05:06:57;;;;;;;6.28;4.18;;;;;;;-144.47;100.00;61586.06;5001634;28;20117;-81
2022/09/13 05:09:23;;;;;;;8.25;4.20;;;;;;;-144.47;100.00;61586.06;5007744;28;20486;-79
2022/09/13 05:11:49;;;;;;;9.27;4.00;;;;;;;-144.47;100.00;61586.06;5010128;28;20112;-79
2022/09/13 05:14:14;;;;;;;5.28;3.63;;;;;;;-144.47;100.00;61586.06;5010251;28;20037;-81
2022/09/13 05:16:39;;;;;;;5.82;3.70;;;;;;;-144.47;100.00;61586.06;5011633;28;20021;-79
2022/09/13 05:19:05;;;;;;;6.78;3.92;;;;;;;-144.47;100.00;61586.06;5019309;28;20168;-76
2022/09/13 05:21:31;;;;;;;6.85;3.90;;;;;;;-144.47;100.00;61586.06;5000858;28;20033;-77
2022/09/13 05:23:57;;;;;;;6.85;4.13;;;;;;;-144.47;100.00;61586.06;5001064;28;20026;-78
2022/09/13 05:26:30;;;;;;;4.50;4.10;;;;;;;-144.47;100.00;61586.06;5021434;28;20046;-85
2022/09/13 05:28:59;;;;;;;5.07;4.35;;;;;;;-144.47;100.00;61586.06;5004150;28;20523;-79
2022/09/13 05:31:27;;;;;;;4.82;4.43;;;;;;;-144.47;100.00;61586.06;4996849;28;20549;-78
2022/09/13 05:33:55;;;;;;;7.20;4.43;;;;;;;-144.47;100.00;61586.06;4970654;28;20156;-79
2022/09/13 05:36:21;;;;;;;8.02;4.82;;;;;;;-144.47;100.00;61586.06;5000992;28;20026;-77
2022/09/13 05:38:47;;;;;;;6.63;5.10;;;;;;;-144.47;100.00;61586.06;5002816;28;20452;-79
2022/09/13 05:41:12;;;;;;;8.18;5.68;;;;;;;-144.47;100.00;61586.06;4984627;28;20046;-78
2022/09/13 05:43:37;;;;;;;6.78;4.95;;;;;;;-144.47;100.00;61586.06;4999697;28;20053;-78
2022/09/13 05:46:04;;;;;;;8.35;5.15;;;;;;;-144.47;100.00;61586.06;5013863;28;20042;-77
2022/09/13 05:48:30;;;;;;;6.60;6.00;;;;;;;-144.47;100.00;61586.06;5007163;28;20129;-78
2022/09/13 05:51:02;;;;;;;5.85;5.30;;;;;;;-144.47;100.00;61586.06;4997769;28;20097;-78
2022/09/13 05:53:28;;;;;;;6.68;5.13;;;;;;;-144.47;100.00;61586.06;5002693;28;20058;-77
2022/09/13 05:55:53;;;;;;;7.38;5.82;;;;;;;-144.47;100.00;61586.06;5000730;28;20069;-79
2022/09/13 05:58:19;;;;;;;5.88;5.20;;;;;;;-144.47;100.00;61586.06;5000764;28;20021;-81
2022/09/13 06:00:44;;;;;;;7.85;5.05;;;;;;;-144.47;100.00;61586.06;4668953;28;10000794;-77
2022/09/13 06:03:10;;;;;;;6.07;5.30;;;;;;;-144.47;100.00;61586.06;5004225;28;20061;-79
2022/09/13 06:05:35;;;;;;;7.28;5.13;;;;;;;-144.47;100.00;61586.06;5016221;28;20387;-78
2022/09/13 06:08:01;;;;;;;14.38;6.40;;;;;;;-144.47;100.00;61586.06;5002883;28;20029;-79
2022/09/13 06:10:28;;;;;;;6.65;6.00;;;;;;;-144.47;100.00;61586.06;4999906;28;20034;-81
2022/09/13 06:12:53;;;;;;;8.02;6.35;;;;;;;-144.47;100.00;61586.06;5002930;28;20059;-80
2022/09/13 06:15:18;;;;;;;11.95;6.78;;;;;;;-144.47;100.00;61586.06;5000054;28;20030;-78
2022/09/13 06:17:45;;;;;;;7.72;6.78;;;;;;;-144.47;100.00;61586.06;5005483;28;20038;-82
2022/09/13 06:20:10;;;;;;;8.70;6.07;;;;;;;-144.47;100.00;61586.06;4984093;28;20045;-78
2022/09/13 06:22:35;;;;;;;7.53;5.10;;;;;;;-144.47;100.00;61586.06;4999931;28;20125;-80
2022/09/13 06:25:01;;;;;;;7.82;6.97;;;;;;;-144.47;100.00;61586.06;5002174;28;20034;-81
2022/09/13 06:27:30;;;;;;;8.98;7.38;;;;;;;-144.47;100.00;61586.06;4998755;28;20093;-81
2022/09/13 06:29:55;;;;;;;12.00;8.25;;;;;;;-144.47;100.00;61586.06;5006579;28;20145;-81
2022/09/13 06:32:21;;;;;;;9.93;7.65;;;;;;;-144.47;100.00;61586.06;4997917;28;20030;-81
2022/09/13 06:34:47;;;;;;;8.48;7.72;;;;;;;-144.47;100.00;61586.06;5001075;28;20088;-81
2022/09/13 06:37:12;;;;;;;9.45;8.00;;;;;;;-144.47;100.00;61586.06;5000322;28;20145;-81
2022/09/13 06:39:38;;;;;;;9.95;8.95;;;;;;;-144.47;100.00;61586.06;4998787;28;20041;-81
2022/09/13 06:42:04;;;;;;;11.02;9.50;;;;;;;-144.47;100.00;61586.06;5001499;28;20192;-81
2022/09/13 06:44:38;;;;;;;10.18;8.88;;;;;;;-144.47;100.00;61586.06;5014829;28;20018;-80
2022/09/13 06:47:03;;;;;;;10.13;9.02;;;;;;;-144.47;100.00;61586.06;5001907;28;20030;-81
2022/09/13 06:49:30;;;;;;;9.13;7.40;;;;;;;-144.47;100.00;61586.06;5001766;28;20049;-81
2022/09/13 06:51:56;;;;;;;7.70;6.97;;;;;;;-144.47;100.00;61586.06;5002107;28;20049;-81
2022/09/13 06:54:21;;;;;;;11.38;7.65;;;;;;;-144.47;100.00;61586.06;4998952;28;20531;-81
2022/09/13 06:56:47;;;;;;;7.75;6.90;;;;;;;-144.47;100.00;61586.06;5000926;28;20113;-81
2022/09/13 06:59:12;;;;;;;11.57;7.65;;;;;;;-144.47;100.00;61586.06;4999896;28;20029;-79
2022/09/13 07:01:40;;;;;;;8.07;7.28;;;;;;;-144.47;100.00;61586.06;5014668;28;20030;-81
2022/09/13 07:04:10;;;;;;;9.18;7.35;;;;;;;-144.47;100.00;61586.06;5000922;28;20037;-81
2022/09/13 07:06:38;;;;;;;8.52;7.65;;;;;;;-144.47;100.00;61586.06;4998145;28;20460;-81
2022/09/13 07:09:06;;;;;;;10.35;7.55;;;;;;;-144.47;100.00;61586.06;4983493;28;20056;-81
2022/09/13 07:11:36;;;;;;;10.73;7.65;;;;;;;-144.47;100.00;61586.06;4998942;28;20121;-79
2022/09/13 07:14:02;;;;;;;10.65;7.78;;;;;;;-144.47;100.00;61586.06;5001519;28;20052;-81
2022/09/13 07:16:30;;;;;;;10.07;7.72;;;;;;;-144.47;100.00;61586.06;4998561;28;20035;-81
2022/09/13 07:19:03;;;;;;;9.25;7.47;;;;;;;-144.47;100.00;61586.06;5006010;28;20038;-82
2022/09/13 07:21:28;;;;;;;11.38;7.90;;;;;;;-144.47;100.00;61586.06;5017448;28;20547;-82
2022/09/13 07:23:55;;;;;;;9.85;8.27;;;;;;;-144.47;100.00;61586.06;5014102;28;20042;-82
2022/09/13 07:26:21;;;;;;;10.02;7.18;;;;;;;-144.47;100.00;61586.06;5002541;28;20387;-81
2022/09/13 07:28:50;;;;;;;9.87;7.33;;;;;;;-144.47;100.00;61586.06;4998488;28;20419;-82
2022/09/13 07:31:35;;;;;;;10.40;7.72;;;;;;;-144.47;100.00;61586.06;5000078;28;20409;-82
2022/09/13 07:34:03;;;;;;;9.55;7.10;;;;;;;-144.47;100.00;61586.06;4997766;28;20444;-81
2022/09/13 07:36:30;;;;;;;9.20;7.97;;;;;;;-144.47;100.00;61586.06;4997476;28;20467;-83
2022/09/13 07:38:57;;;;;;;8.93;8.00;;;;;;;-144.47;100.00;61586.06;5016414;28;20503;-81
2022/09/13 07:41:25;;;;;;;12.43;7.93;;;;;;;-144.47;100.00;61586.06;4997793;28;20394;-82
2022/09/13 07:43:51;;;;;;;11.75;7.50;;;;;;;-144.47;100.00;61586.06;5000097;28;20436;-82
2022/09/13 07:46:21;;;;;;;13.68;8.52;;;;;;;-144.47;100.00;61586.06;4998534;28;20483;-81
2022/09/13 07:48:48;;;;;;;10.38;7.57;;;;;;;-144.47;100.00;61586.06;5006901;28;20568;-81
2022/09/13 07:51:21;;;;;;;9.65;7.03;;;;;;;-144.47;100.00;61586.06;4999797;28;20399;-82
2022/09/13 07:53:49;;;;;;;9.60;7.53;;;;;;;-144.47;100.00;61586.06;5003219;28;20910;-82
2022/09/13 07:56:20;;;;;;;11.85;8.18;;;;;;;-144.47;100.00;61586.06;5002267;28;20863;-82
2022/09/13 07:58:47;;;;;;;10.60;7.68;;;;;;;-144.47;100.00;61586.06;5002862;28;20508;-82
2022/09/13 08:01:17;;;;;;;11.35;7.20;;;;;;;-144.47;100.00;61586.06;5002286;28;20407;-82
2022/09/13 08:03:49;;;;;;;10.15;8.38;;;;;;;-144.47;100.00;61586.06;5017612;28;20408;-82
2022/09/13 08:06:14;;;;;;;10.40;8.00;;;;;;;-144.47;100.00;61586.06;5001843;28;20412;-80
2022/09/13 08:08:40;;;;;;;8.02;7.22;;;;;;;-144.47;100.00;61586.06;5009669;28;20439;-82
2022/09/13 08:11:06;;;;;;;9.90;7.70;;;;;;;-144.47;100.00;61586.06;5010752;28;20412;-79
2022/09/13 08:13:32;;;;;;;9.83;8.20;;;;;;;-144.47;100.00;61586.06;5006777;28;21166;-81
2022/09/13 08:16:03;;;;;;;9.03;7.63;;;;;;;-144.47;100.00;61586.06;5005043;28;20412;-81
2022/09/13 08:18:28;;;;;;;9.50;7.25;;;;;;;-144.47;100.00;61586.06;5006286;28;20409;-81
2022/09/13 08:20:58;;;;;;;7.97;6.68;;;;;;;-144.47;100.00;61586.06;5018892;28;20442;-82
2022/09/13 08:23:24;;;;;;;7.82;6.95;;;;;;;-144.47;100.00;61586.06;5000802;28;20405;-82
2022/09/13 08:25:50;;;;;;;14.52;8.27;;;;;;;-144.47;100.00;61586.06;5003144;28;20427;-82
2022/09/13 08:28:17;;;;;;;8.85;6.72;;;;;;;-144.47;100.00;61586.06;5016688;28;20900;-82
2022/09/13 08:30:43;;;;;;;8.85;7.00;;;;;;;-144.47;100.00;61586.06;5002162;28;20485;-82
2022/09/13 08:33:10;;;;;;;8.00;6.10;;;;;;;-144.47;100.00;61586.06;5002422;28;20408;-82
2022/09/13 08:35:37;;;;;;;7.70;6.20;;;;;;;-144.47;100.00;61586.06;4983539;28;20906;-82
2022/09/13 08:38:03;;;;;;;8.57;5.80;;;;;;;-144.47;100.00;61586.06;5003167;28;20419;-82
2022/09/13 08:40:48;;;;;;;6.93;5.65;;;;;;;-144.47;100.00;61586.06;5000218;28;20413;-82
2022/09/13 08:43:25;;;;;;;8.32;5.60;;;;;;;-144.47;100.00;61586.06;5001239;28;20812;-83
2022/09/13 08:46:17;;;;;;;6.20;5.60;;;;;;;-144.47;100.00;61586.06;5003321;28;20499;-82
2022/09/13 08:48:46;;;;;;;8.50;5.50;;;;;;;-144.47;100.00;61586.06;4995100;28;20426;-81
2022/09/13 08:51:24;;;;;;;6.35;5.75;;;;;;;-144.47;100.00;61586.06;5001691;28;20407;-82
2022/09/13 08:53:50;;;;;;;7.75;5.78;;;;;;;-144.47;100.00;61586.06;5002783;28;20871;-81
2022/09/13 08:56:23;;;;;;;7.35;5.93;;;;;;;-144.47;100.00;61586.06;5001142;28;20400;-83
2022/09/13 08:59:08;;;;;;;7.20;6.20;;;;;;;-144.47;100.00;61586.06;5002218;28;20557;-82
2022/09/13 09:01:40;;;;;;;9.00;5.77;;;;;;;-144.47;100.00;61586.06;5007185;28;20409;-82
2022/09/13 09:04:28;;;;;;;8.45;5.60;;;;;;;-144.47;100.00;61586.06;5001408;28;20473;-82
2022/09/13 09:07:10;;;;;;;7.60;5.38;;;;;;;-144.47;100.00;61586.06;5004233;28;20451;-81
2022/09/13 09:09:50;;;;;;;7.38;5.50;;;;;;;-144.47;100.00;61586.06;5023389;28;20408;-81
2022/09/13 09:12:20;;;;;;;8.50;6.17;;;;;;;-144.47;100.00;61586.06;5004378;28;20398;-81
2022/09/13 09:14:57;;;;;;;7.50;6.20;;;;;;;-144.47;100.00;61586.06;5000283;28;20760;-81
2022/09/13 09:17:33;;;;;;;8.90;6.90;;;;;;;-144.47;100.00;61586.06;5005817;28;20461;-81
2022/09/13 09:20:15;;;;;;;9.80;7.23;;;;;;;-144.47;100.00;61586.06;5002834;28;20413;-80
2022/09/13 09:22:41;;;;;;;10.65;8.00;;;;;;;-144.47;100.00;61586.06;5015623;28;20558;-82
2022/09/13 09:25:10;;;;;;;9.63;7.50;;;;;;;-144.47;100.00;61586.06;5000364;28;20473;-82
2022/09/13 09:27:36;;;;;;;8.15;6.70;;;;;;;-144.47;100.00;61586.06;5001232;28;20457;-82
2022/09/13 09:30:02;;;;;;;10.00;7.00;;;;;;;-144.47;100.00;61586.06;4999607;28;20485;-81
2022/09/13 09:32:30;;;;;;;9.73;6.57;;;;;;;-144.47;100.00;61586.06;5005972;28;20402;-82
2022/09/13 09:34:55;;;;;;;8.73;6.45;;;;;;;-144.47;100.00;61586.06;5005369;28;20420;-82
2022/09/13 09:37:24;;;;;;;8.30;6.20;;;;;;;-144.47;100.00;61586.06;5004279;28;20755;-81
2022/09/13 09:40:03;;;;;;;6.20;5.60;;;;;;;-144.47;100.00;61586.06;5006346;28;20734;-82
2022/09/13 09:42:34;;;;;;;7.25;5.03;;;;;;;-144.47;100.00;61586.06;5006599;28;20400;-82
2022/09/13 09:45:04;;;;;;;7.75;5.25;;;;;;;-144.47;100.00;61586.06;5004462;28;20402;-81
2022/09/13 09:47:50;;;;;;;7.55;4.75;;;;;;;-144.47;100.00;61586.06;5002787;28;20504;-82
2022/09/13 09:50:23;;;;;;;8.68;5.13;;;;;;;-144.47;100.00;61586.06;5000108;28;20408;-82
2022/09/13 09:53:00;;;;;;;8.02;4.82;;;;;;;-144.47;100.00;61586.06;5001223;28;20422;-83
2022/09/13 09:55:27;;;;;;;8.02;6.13;;;;;;;-144.47;100.00;61586.06;4998729;28;20412;-84
2022/09/13 09:57:58;;;;;;;6.63;5.40;;;;;;;-144.47;100.00;61586.06;5001914;28;20418;-80
2022/09/13 10:00:30;;;;;;;5.90;5.30;;;;;;;-144.47;100.00;61586.06;4988662;28;20491;-82
2022/09/13 10:03:00;;;;;;;5.97;4.90;;;;;;;-144.47;100.00;61586.06;5002408;28;20405;-81
2022/09/13 10:05:26;;;;;;;6.32;5.10;;;;;;;-144.47;100.00;61586.06;5005941;28;20395;-83
2022/09/13 10:08:41;;;;;;;6.80;4.85;;;;;;;-144.47;100.00;61586.06;4998566;28;20436;-82
2022/09/13 10:11:08;;;;;;;7.30;4.20;;;;;;;-144.47;100.00;61586.06;4996190;28;20977;-82
2022/09/13 10:13:34;;;;;;;7.37;4.73;;;;;;;-144.47;100.00;61586.06;4980814;28;20919;-83
2022/09/13 10:16:02;;;;;;;6.35;4.60;;;;;;;-144.47;100.00;61586.06;5001580;28;20499;-81
2022/09/13 10:18:35;;;;;;;7.93;4.38;;;;;;;-144.47;100.00;61586.06;5002200;28;20410;-82
2022/09/13 10:21:17;;;;;;;6.00;4.43;;;;;;;-144.47;100.00;61586.06;5002599;28;20432;-82
2022/09/13 10:23:45;;;;;;;6.70;3.85;;;;;;;-144.47;100.00;61586.06;4981910;28;20415;-83
2022/09/13 10:26:13;;;;;;;6.17;4.27;;;;;;;-144.47;100.00;61586.06;4999738;28;20405;-83
2022/09/13 10:28:46;;;;;;;7.30;3.40;;;;;;;-144.47;100.00;61586.06;4981959;28;20439;-83
2022/09/13 10:31:15;;;;;;;5.65;3.30;;;;;;;-144.47;100.00;61586.06;4982447;28;20418;-83
2022/09/13 10:33:45;;;;;;;6.60;3.85;;;;;;;-144.47;100.00;61586.06;4999514;28;20436;-83
2022/09/13 10:36:30;;;;;;;5.45;3.85;;;;;;;-144.47;100.00;61586.06;5000087;28;20949;-83
2022/09/13 10:39:11;;;;;;;4.70;3.97;;;;;;;-144.47;100.00;61586.06;4987932;28;20428;-84
2022/09/13 10:41:41;;;;;;;5.22;3.33;;;;;;;-144.47;100.00;61586.06;5016544;28;20497;-83
2022/09/13 10:44:22;;;;;;;6.88;3.67;;;;;;;-144.47;100.00;61586.06;4999419;28;20410;-83
2022/09/13 10:46:49;;;;;;;5.53;3.63;;;;;;;-144.47;100.00;61586.06;4981311;28;20428;-83
2022/09/13 10:49:59;;;;;;;8.67;3.30;;;;;;;-144.47;100.00;61586.06;5003071;28;20420;-83
2022/09/13 10:52:24;;;;;;;6.65;3.65;;;;;;;-144.47;100.00;61586.06;5001316;28;20528;-83
2022/09/13 10:54:50;;;;;;;5.97;3.60;;;;;;;-144.47;100.00;61586.06;4998495;28;20496;-83
2022/09/13 10:57:36;;;;;;;6.37;3.77;;;;;;;-144.47;100.00;61586.06;5015415;28;20553;-83
2022/09/13 11:00:08;;;;;;;8.20;4.20;;;;;;;-144.47;100.00;61586.06;4972647;28;20414;-83
2022/09/13 11:03:17;;;;;;;4.68;3.40;;;;;;;-144.47;100.00;61586.06;5004613;28;20435;-83
2022/09/13 11:05:49;;;;;;;8.13;3.35;;;;;;;-144.47;100.00;61586.06;4986275;28;20413;-83
2022/09/13 11:08:36;;;;;;;7.38;3.33;;;;;;;-144.47;100.00;61586.06;4983790;28;20461;-83
2022/09/13 11:11:26;;;;;;;6.07;2.85;;;;;;;-144.47;100.00;61586.06;5005151;28;20554;-83
2022/09/13 11:14:15;;;;;;;4.45;2.90;;;;;;;-144.47;100.00;61586.06;4997930;28;20417;-82
2022/09/13 11:17:18;;;;;;;5.82;2.70;;;;;;;-144.47;100.00;61586.06;5003357;28;20409;-83
2022/09/13 11:20:04;;;;;;;3.85;2.03;;;;;;;-144.47;100.00;61586.06;5014146;28;21264;-83
2022/09/13 11:22:51;;;;;;;4.15;2.25;;;;;;;-144.47;100.00;61586.06;5016117;28;20422;-83
2022/09/13 11:25:47;;;;;;;4.32;2.22;;;;;;;-144.47;100.00;61586.06;4982748;28;20412;-81
2022/09/13 11:28:37;;;;;;;3.78;2.08;;;;;;;-144.47;100.00;61586.06;5008422;28;20461;-82
2022/09/13 11:31:26;;;;;;;5.97;2.40;;;;;;;-144.47;100.00;61586.06;5009350;28;20465;-83